Mt New Conquest — V7GG4 — position and weather

sailwx.info

Track history (hours):
 
Tides and Currents Weather Stations Pressure Air Temp Water Temp Dewpoint Dewpoint Depression Visibility Wind Speed Wind Dir Waves Ship Positions

Mt New Conquest

Last reported at 2014-Dec-21 00:28 UTC. Time now 2014-Dec-21 08:32 UTC.
Position N 33°44' W 118°13'.

Length 228 m; draft 11.5 m.

Type: Ship (hazmat cat A). MMSI: 538002089.

Date/timePositionNaut miles runAvg speedWind from/ knotsBaromVisibWave heightAir tempDewpointWater temp
2014-Dec-21 00:28N 33°44' W 118°13'0 0.1
2014-Dec-20 23:31N 33°44' W 118°13'0 0.0
2014-Dec-20 22:31N 33°44' W 118°13'0 0.0
2014-Dec-20 21:31N 33°44' W 118°13'0 0.1
2014-Dec-20 20:31N 33°44' W 118°13'1 1.1
2014-Dec-20 19:32N 33°45' W 118°13'0 0.0
2014-Dec-20 01:33N 33°45' W 118°13'1 0.0
2014-Dec-18 18:34N 33°44' W 118°12'2 1.3
2014-Dec-18 17:14N 33°43' W 118°14'0 0.0
2014-Dec-18 16:11N 33°43' W 118°14'1 0.0
2014-Dec-17 13:27N 33°44' W 118°14'0 0.2
2014-Dec-17 12:32N 33°44' W 118°13'0 0.1
2014-Dec-17 11:32N 33°44' W 118°14'0 0.1
2014-Dec-17 10:32N 33°44' W 118°14'0 0.0
2014-Dec-17 09:32N 33°44' W 118°14'0 0.0
2014-Dec-17 08:26N 33°44' W 118°14'0 0.1
2014-Dec-17 07:32N 33°44' W 118°14'0 0.1
2014-Dec-17 04:23N 33°44' W 118°14'0 0.0
2014-Dec-17 02:11N 33°44' W 118°14'0 0.0
2014-Dec-17 01:17N 33°44' W 118°14'0 0.0
2014-Dec-17 00:32N 33°44' W 118°14'0 0.0
2014-Dec-16 23:32N 33°44' W 118°14'0 0.1
2014-Dec-16 22:32N 33°44' W 118°14'0 0.0
2014-Dec-16 21:29N 33°44' W 118°14'0 0.1
2014-Dec-16 20:32N 33°44' W 118°14'0 0.0
2014-Dec-16 19:32N 33°44' W 118°14'0 0.0
2014-Dec-16 18:32N 33°44' W 118°14'0 0.0
2014-Dec-16 16:17N 33°44' W 118°14'0 0.0
2014-Dec-16 13:32N 33°44' W 118°14'0 0.3
2014-Dec-16 11:33N 33°44' W 118°13'1 1.1
2014-Dec-16 10:31N 33°45' W 118°13'0 0.0
2014-Dec-15 04:31N 33°45' W 118°13'1 1.3
2014-Dec-15 03:32N 33°44' W 118°14'0 0.0
2014-Dec-15 01:26N 33°44' W 118°14'0 0.0
2014-Dec-15 00:29N 33°44' W 118°14'0 0.0
2014-Dec-14 23:05N 33°44' W 118°14'0 0.1
2014-Dec-14 22:14N 33°44' W 118°14'0 0.0
2014-Dec-14 21:05N 33°44' W 118°14'0 0.2
2014-Dec-14 20:32N 33°44' W 118°14'0 0.1
2014-Dec-14 19:14N 33°44' W 118°14'0 0.0
2014-Dec-14 18:26N 33°44' W 118°14'0 0.0
2014-Dec-14 16:14N 33°44' W 118°14'0 0.0
2014-Dec-14 15:29N 33°44' W 118°14'0 0.0
2014-Dec-14 13:32N 33°44' W 118°14'0 0.0
2014-Dec-14 12:11N 33°44' W 118°14'0 0.0
2014-Dec-14 11:08N 33°44' W 118°14'0 0.0
2014-Dec-14 08:11N 33°44' W 118°14'0 0.1
2014-Dec-14 07:29N 33°44' W 118°14'0 0.1
2014-Dec-14 06:32N 33°44' W 118°14'0 0.1
2014-Dec-14 05:32N 33°44' W 118°14'0 0.0
2014-Dec-14 04:26N 33°44' W 118°14'0 0.0
2014-Dec-14 03:32N 33°44' W 118°14'0 0.0
2014-Dec-14 02:32N 33°44' W 118°14'0 0.0
2014-Dec-14 01:26N 33°44' W 118°14'0 0.0
2014-Dec-14 00:26N 33°44' W 118°14'0 0.0
2014-Dec-13 23:32N 33°44' W 118°14'0 0.0
2014-Dec-13 22:32N 33°44' W 118°14'0 0.0
2014-Dec-13 21:32N 33°44' W 118°14'0 0.0
2014-Dec-13 20:32N 33°44' W 118°14'0 0.1
2014-Dec-13 19:32N 33°44' W 118°14'0 0.2
2014-Dec-13 18:29N 33°44' W 118°14'0 0.0
2014-Dec-13 17:29N 33°44' W 118°14'0 0.1
2014-Dec-13 16:29N 33°44' W 118°14'0 0.1
2014-Dec-13 15:29N 33°44' W 118°14'2 0.1
2014-Dec-12 21:15N 33°45' W 118°13'1 1.1
2014-Dec-12 20:34N 33°44' W 118°12'5 5.0
2014-Dec-12 19:31N 33°40' W 118°09'9 8.2
2014-Dec-12 18:29N 33°31' W 118°08'9 9.9
2014-Dec-12 17:33N 33°23' W 118°04'1211.5
2014-Dec-12 16:33N 33°11' W 118°00'8 7.9
2014-Dec-12 15:33N 33°04' W 117°58'9 8.9
2014-Dec-12 14:33N 32°55' W 117°55'1212.4
2014-Dec-12 13:33N 32°43' W 117°52'1313.0
2014-Dec-12 12:33N 32°31' W 117°48'1313.4
2014-Dec-12 11:34N 32°18' W 117°44'1413.5
2014-Dec-12 10:33N 32°04' W 117°41'  
Track history (hours):
 
Tides and Currents Weather Stations Pressure Air Temp Water Temp Dewpoint Dewpoint Depression Visibility Wind Speed Wind Dir Waves Ship Positions

Mt New Conquest

Last reported at 2014-Dec-21 00:28 UTC. Time now 2014-Dec-21 08:32 UTC.
Position N 33°44' W 118°13'.

Length 228 m; draft 11.5 m.

Type: Ship (hazmat cat A). MMSI: 538002089.

Date/timePositionNaut miles runAvg speedWind from/ knotsBaromVisibWave heightAir tempDewpointWater temp
2014-Dec-21 00:28N 33°44' W 118°13'0 0.1
2014-Dec-20 23:31N 33°44' W 118°13'0 0.0
2014-Dec-20 22:31N 33°44' W 118°13'0 0.0
2014-Dec-20 21:31N 33°44' W 118°13'0 0.1
2014-Dec-20 20:31N 33°44' W 118°13'1 1.1
2014-Dec-20 19:32N 33°45' W 118°13'0 0.0
2014-Dec-20 01:33N 33°45' W 118°13'1 0.0
2014-Dec-18 18:34N 33°44' W 118°12'2 1.3
2014-Dec-18 17:14N 33°43' W 118°14'0 0.0
2014-Dec-18 16:11N 33°43' W 118°14'1 0.0
2014-Dec-17 13:27N 33°44' W 118°14'0 0.2
2014-Dec-17 12:32N 33°44' W 118°13'0 0.1
2014-Dec-17 11:32N 33°44' W 118°14'0 0.1
2014-Dec-17 10:32N 33°44' W 118°14'0 0.0
2014-Dec-17 09:32N 33°44' W 118°14'0 0.0
2014-Dec-17 08:26N 33°44' W 118°14'0 0.1
2014-Dec-17 07:32N 33°44' W 118°14'0 0.1
2014-Dec-17 04:23N 33°44' W 118°14'0 0.0
2014-Dec-17 02:11N 33°44' W 118°14'0 0.0
2014-Dec-17 01:17N 33°44' W 118°14'0 0.0
2014-Dec-17 00:32N 33°44' W 118°14'0 0.0
2014-Dec-16 23:32N 33°44' W 118°14'0 0.1
2014-Dec-16 22:32N 33°44' W 118°14'0 0.0
2014-Dec-16 21:29N 33°44' W 118°14'0 0.1
2014-Dec-16 20:32N 33°44' W 118°14'0 0.0
2014-Dec-16 19:32N 33°44' W 118°14'0 0.0
2014-Dec-16 18:32N 33°44' W 118°14'0 0.0
2014-Dec-16 16:17N 33°44' W 118°14'0 0.0
2014-Dec-16 13:32N 33°44' W 118°14'0 0.3
2014-Dec-16 11:33N 33°44' W 118°13'1 1.1
2014-Dec-16 10:31N 33°45' W 118°13'0 0.0
2014-Dec-15 04:31N 33°45' W 118°13'1 1.3
2014-Dec-15 03:32N 33°44' W 118°14'0 0.0
2014-Dec-15 01:26N 33°44' W 118°14'0 0.0
2014-Dec-15 00:29N 33°44' W 118°14'0 0.0
2014-Dec-14 23:05N 33°44' W 118°14'0 0.1
2014-Dec-14 22:14N 33°44' W 118°14'0 0.0
2014-Dec-14 21:05N 33°44' W 118°14'0 0.2
2014-Dec-14 20:32N 33°44' W 118°14'0 0.1
2014-Dec-14 19:14N 33°44' W 118°14'0 0.0
2014-Dec-14 18:26N 33°44' W 118°14'0 0.0
2014-Dec-14 16:14N 33°44' W 118°14'0 0.0
2014-Dec-14 15:29N 33°44' W 118°14'0 0.0
2014-Dec-14 13:32N 33°44' W 118°14'0 0.0
2014-Dec-14 12:11N 33°44' W 118°14'0 0.0
2014-Dec-14 11:08N 33°44' W 118°14'0 0.0
2014-Dec-14 08:11N 33°44' W 118°14'0 0.1
2014-Dec-14 07:29N 33°44' W 118°14'0 0.1
2014-Dec-14 06:32N 33°44' W 118°14'0 0.1
2014-Dec-14 05:32N 33°44' W 118°14'0 0.0
2014-Dec-14 04:26N 33°44' W 118°14'0 0.0
2014-Dec-14 03:32N 33°44' W 118°14'0 0.0
2014-Dec-14 02:32N 33°44' W 118°14'0 0.0
2014-Dec-14 01:26N 33°44' W 118°14'0 0.0
2014-Dec-14 00:26N 33°44' W 118°14'0 0.0
2014-Dec-13 23:32N 33°44' W 118°14'0 0.0
2014-Dec-13 22:32N 33°44' W 118°14'0 0.0
2014-Dec-13 21:32N 33°44' W 118°14'0 0.0
2014-Dec-13 20:32N 33°44' W 118°14'0 0.1
2014-Dec-13 19:32N 33°44' W 118°14'0 0.2
2014-Dec-13 18:29N 33°44' W 118°14'0 0.0
2014-Dec-13 17:29N 33°44' W 118°14'0 0.1
2014-Dec-13 16:29N 33°44' W 118°14'0 0.1
2014-Dec-13 15:29N 33°44' W 118°14'2 0.1
2014-Dec-12 21:15N 33°45' W 118°13'1 1.1
2014-Dec-12 20:34N 33°44' W 118°12'5 5.0
2014-Dec-12 19:31N 33°40' W 118°09'9 8.2
2014-Dec-12 18:29N 33°31' W 118°08'9 9.9
2014-Dec-12 17:33N 33°23' W 118°04'1211.5
2014-Dec-12 16:33N 33°11' W 118°00'8 7.9
2014-Dec-12 15:33N 33°04' W 117°58'9 8.9
2014-Dec-12 14:33N 32°55' W 117°55'1212.4
2014-Dec-12 13:33N 32°43' W 117°52'1313.0
2014-Dec-12 12:33N 32°31' W 117°48'1313.4
2014-Dec-12 11:34N 32°18' W 117°44'1413.5
2014-Dec-12 10:33N 32°04' W 117°41'  

Dump ship's entire track history